地図

経路データ

SID SEASON NUMBER BASIN SUBBASIN NAME ISO_TIME NATURE LAT LON WMO_WIND WMO_PRES WMO_AGENCY TRACK_TYPE DIST2LAND LANDFALL IFLAG USA_AGENCY USA_ATCF_ID USA_LAT USA_LON USA_RECORD USA_STATUS USA_WIND USA_PRES USA_SSHS USA_R34_NE USA_R34_SE USA_R34_SW USA_R34_NW USA_R50_NE USA_R50_SE USA_R50_SW USA_R50_NW USA_R64_NE USA_R64_SE USA_R64_SW USA_R64_NW USA_POCI USA_ROCI USA_RMW USA_EYE TOKYO_LAT TOKYO_LON TOKYO_GRADE TOKYO_WIND TOKYO_PRES TOKYO_R50_DIR TOKYO_R50_LONG TOKYO_R50_SHORT TOKYO_R30_DIR TOKYO_R30_LONG TOKYO_R30_SHORT TOKYO_LAND CMA_LAT CMA_LON CMA_CAT CMA_WIND CMA_PRES HKO_LAT HKO_LON HKO_CAT HKO_WIND HKO_PRES NEWDELHI_LAT NEWDELHI_LON NEWDELHI_GRADE NEWDELHI_WIND NEWDELHI_PRES NEWDELHI_CI NEWDELHI_DP NEWDELHI_POCI REUNION_LAT REUNION_LON REUNION_TYPE REUNION_WIND REUNION_PRES REUNION_TNUM REUNION_CI REUNION_RMW REUNION_R34_NE REUNION_R34_SE REUNION_R34_SW REUNION_R34_NW REUNION_R50_NE REUNION_R50_SE REUNION_R50_SW REUNION_R50_NW REUNION_R64_NE REUNION_R64_SE REUNION_R64_SW REUNION_R64_NW BOM_LAT BOM_LON BOM_TYPE BOM_WIND BOM_PRES BOM_TNUM BOM_CI BOM_RMW BOM_R34_NE BOM_R34_SE BOM_R34_SW BOM_R34_NW BOM_R50_NE BOM_R50_SE BOM_R50_SW BOM_R50_NW BOM_R64_NE BOM_R64_SE BOM_R64_SW BOM_R64_NW BOM_ROCI BOM_POCI BOM_EYE BOM_POS_METHOD BOM_PRES_METHOD NADI_LAT NADI_LON NADI_CAT NADI_WIND NADI_PRES WELLINGTON_LAT WELLINGTON_LON WELLINGTON_WIND WELLINGTON_PRES DS824_LAT DS824_LON DS824_STAGE DS824_WIND DS824_PRES TD9636_LAT TD9636_LON TD9636_STAGE TD9636_WIND TD9636_PRES TD9635_LAT TD9635_LON TD9635_WIND TD9635_PRES TD9635_ROCI NEUMANN_LAT NEUMANN_LON NEUMANN_CLASS NEUMANN_WIND NEUMANN_PRES MLC_LAT MLC_LON MLC_CLASS MLC_WIND MLC_PRES USA_GUST BOM_GUST BOM_GUST_PER REUNION_GUST REUNION_GUST_PER USA_SEAHGT USA_SEARAD_NE USA_SEARAD_SE USA_SEARAD_SW USA_SEARAD_NW STORM_SPEED STORM_DIR
1959148N23274 1959 34 NA GM ARLENE 1959-05-28 06:00:00 TS 23.3000 -86.5000 25 hurdat_atl main 207 207 O_____________ hurdat_atl AL011959 23.3000 -86.5000 TD 25 -1 8 327
1959148N23274 1959 34 NA GM ARLENE 1959-05-28 09:00:00 TS 23.6526 -86.7546 main 246 246 P_____________ AL011959 23.6526 -86.7546 TD 27 -1 8 327
1959148N23274 1959 34 NA GM ARLENE 1959-05-28 12:00:00 TS 24.0000 -87.0000 30 hurdat_atl main 279 279 O_____________ hurdat_atl AL011959 24.0000 -87.0000 TD 30 -1 8 328
1959148N23274 1959 34 NA GM ARLENE 1959-05-28 15:00:00 TS 24.3424 -87.2353 main 313 313 P_____________ AL011959 24.3424 -87.2353 TD 30 -1 8 327
1959148N23274 1959 34 NA GM ARLENE 1959-05-28 18:00:00 TS 24.7000 -87.5000 30 hurdat_atl main 358 358 O_____________ hurdat_atl AL011959 24.7000 -87.5000 TD 30 -1 9 324
1959148N23274 1959 34 NA GM ARLENE 1959-05-28 21:00:00 TS 25.0775 -87.8278 main 402 400 P_____________ AL011959 25.0775 -87.8278 TD 32 -1 10 322
1959148N23274 1959 34 NA GM ARLENE 1959-05-29 00:00:00 TS 25.5000 -88.2000 35 hurdat_atl main 400 340 O_____________ hurdat_atl AL011959 25.5000 -88.2000 TS 35 0 11 324
1959148N23274 1959 34 NA GM ARLENE 1959-05-29 03:00:00 TS 25.9922 -88.5703 main 338 279 P_____________ AL011959 25.9922 -88.5703 TS 37 0 12 324
1959148N23274 1959 34 NA GM ARLENE 1959-05-29 06:00:00 TS 26.5000 -89.0000 40 hurdat_atl main 279 226 O_____________ hurdat_atl AL011959 26.5000 -89.0000 TS 40 0 13 320
1959148N23274 1959 34 NA GM ARLENE 1959-05-29 09:00:00 TS 27.0025 -89.5271 main 226 189 P_____________ AL011959 27.0025 -89.5271 TS 42 0 13 313
1959148N23274 1959 34 NA GM ARLENE 1959-05-29 12:00:00 TS 27.4000 -90.1000 45 1000 hurdat_atl main 189 167 O_____________ hurdat_atl AL011959 27.4000 -90.1000 TS 45 1000 0 12 301
1959148N23274 1959 34 NA GM ARLENE 1959-05-29 15:00:00 TS 27.6101 -90.6880 main 167 156 P_____________ AL011959 27.6101 -90.6880 TS 45 1001 0 10 287
1959148N23274 1959 34 NA GM ARLENE 1959-05-29 18:00:00 TS 27.7000 -91.2000 45 1002 hurdat_atl main 159 156 O_____________ hurdat_atl AL011959 27.7000 -91.2000 TS 45 1002 0 8 281
1959148N23274 1959 34 NA GM ARLENE 1959-05-29 21:00:00 TS 27.7573 -91.5752 main 160 160 P_____________ AL011959 27.7573 -91.5752 TS 45 1001 0 5 281
1959148N23274 1959 34 NA GM ARLENE 1959-05-30 00:00:00 TS 27.8000 -91.8000 45 1000 hurdat_atl main 169 164 O_____________ hurdat_atl AL011959 27.8000 -91.8000 TS 45 1000 0 3 292
1959148N23274 1959 34 NA GM ARLENE 1959-05-30 03:00:00 TS 27.8699 -91.8951 main 164 155 P_____________ AL011959 27.8699 -91.8951 TS 45 999 0 2 335
1959148N23274 1959 34 NA GM ARLENE 1959-05-30 06:00:00 TS 28.0000 -91.9000 45 999 hurdat_atl main 155 136 O_____________ hurdat_atl AL011959 28.0000 -91.9000 TS 45 999 0 3 359
1959148N23274 1959 34 NA GM ARLENE 1959-05-30 09:00:00 TS 28.2125 -91.9150 main 136 110 P_____________ AL011959 28.2125 -91.9150 TS 47 997 0 5 2
1959148N23274 1959 34 NA GM ARLENE 1959-05-30 12:00:00 TS 28.5000 -91.9000 50 996 hurdat_atl main 110 83 O_____________ hurdat_atl AL011959 28.5000 -91.9000 TS 50 996 0 6 3
1959148N23274 1959 34 NA GM ARLENE 1959-05-30 15:00:00 TS 28.8449 -91.8753 main 83 38 P_____________ AL011959 28.8449 -91.8753 TS 52 994 0 7 7
1959148N23274 1959 34 NA GM ARLENE 1959-05-30 18:00:00 TS 29.2000 -91.8000 55 993 hurdat_atl main 38 0 O_____________ hurdat_atl AL011959 29.2000 -91.8000 TS 55 993 0 7 18
1959148N23274 1959 34 NA GM ARLENE 1959-05-30 21:00:00 TS 29.5018 -91.6336 main 0 0 P_____________ AL011959 29.5018 -91.6336 TS 55 0 7 23
1959148N23274 1959 34 NA GM ARLENE 1959-05-30 22:00:00 TS 29.6000 -91.6000 55 hurdat_atl main 0 0 O_____________ hurdat_atl AL011959 29.6000 -91.6000 L TS 55 0 6 8
1959148N23274 1959 34 NA NA ARLENE 1959-05-31 00:00:00 TS 29.8000 -91.6000 55 hurdat_atl main 0 0 O_____________ hurdat_atl AL011959 29.8000 -91.6000 TS 55 0 6 8
1959148N23274 1959 34 NA NA ARLENE 1959-05-31 03:00:00 TS 30.1065 -91.5234 main 0 0 P_____________ AL011959 30.1065 -91.5234 TS 47 0 6 16
1959148N23274 1959 34 NA NA ARLENE 1959-05-31 06:00:00 TS 30.4000 -91.4000 40 hurdat_atl main 0 0 O_____________ hurdat_atl AL011959 30.4000 -91.4000 TS 40 0 6 19
1959148N23274 1959 34 NA NA ARLENE 1959-05-31 09:00:00 TS 30.6500 -91.3073 main 0 0 P_____________ AL011959 30.6500 -91.3073 TS 35 0 5 19
1959148N23274 1959 34 NA NA ARLENE 1959-05-31 12:00:00 TS 30.9000 -91.2000 30 hurdat_atl main 0 0 O_____________ hurdat_atl AL011959 30.9000 -91.2000 TD 30 -1 6 21
1959148N23274 1959 34 NA NA ARLENE 1959-05-31 15:00:00 TS 31.1925 -91.0649 main 0 0 P_____________ AL011959 31.1925 -91.0649 TD 27 -1 7 23
1959148N23274 1959 34 NA NA ARLENE 1959-05-31 18:00:00 TS 31.5000 -90.9000 25 hurdat_atl main 0 0 O_____________ hurdat_atl AL011959 31.5000 -90.9000 TD 25 -1 7 25
1959148N23274 1959 34 NA NA ARLENE 1959-05-31 21:00:00 TS 31.8224 -90.7225 main 0 0 P_____________ AL011959 31.8224 -90.7225 TD 25 -1 7 30
1959148N23274 1959 34 NA NA ARLENE 1959-06-01 00:00:00 TS 32.1000 -90.5000 25 hurdat_atl main 0 0 O_____________ hurdat_atl AL011959 32.1000 -90.5000 TD 25 -1 6 42
1959148N23274 1959 34 NA NA ARLENE 1959-06-01 03:00:00 TS 32.2799 -90.2298 main 0 0 P_____________ AL011959 32.2799 -90.2298 TD 25 -1 6 59
1959148N23274 1959 34 NA NA ARLENE 1959-06-01 06:00:00 TS 32.4000 -89.9000 25 hurdat_atl main 0 0 O_____________ hurdat_atl AL011959 32.4000 -89.9000 TD 25 -1 6 69
1959148N23274 1959 34 NA NA ARLENE 1959-06-01 09:00:00 TS 32.5150 -89.5150 main 0 0 P_____________ AL011959 32.5150 -89.5150 TD 25 -1 7 74
1959148N23274 1959 34 NA NA ARLENE 1959-06-01 12:00:00 TS 32.6000 -89.1000 25 hurdat_atl main 0 0 O_____________ hurdat_atl AL011959 32.6000 -89.1000 TD 25 -1 7 78
1959148N23274 1959 34 NA NA ARLENE 1959-06-01 15:00:00 TS 32.6571 -88.7223 main 0 0 P_____________ AL011959 32.6571 -88.7223 TD 25 -1 7 82
1959148N23274 1959 34 NA NA ARLENE 1959-06-01 18:00:00 TS 32.7000 -88.3000 25 hurdat_atl main 0 0 O_____________ hurdat_atl AL011959 32.7000 -88.3000 TD 25 -1 7 83
1959148N23274 1959 34 NA NA ARLENE 1959-06-01 21:00:00 TS 32.7485 -87.8548 main 0 0 P_____________ AL011959 32.7485 -87.8548 TD 22 -1 9 84
1959148N23274 1959 34 NA NA ARLENE 1959-06-02 00:00:00 TS 32.8000 -87.2000 20 hurdat_atl main 0 0 O_____________ hurdat_atl AL011959 32.8000 -87.2000 TD 20 -1 14 87
1959148N23274 1959 34 NA NA ARLENE 1959-06-02 03:00:00 TS 32.8131 -86.1884 main 0 0 P_____________ AL011959 32.8131 -86.1884 TD 20 -1 18 87
1959148N23274 1959 34 NA NA ARLENE 1959-06-02 06:00:00 TS 32.9000 -85.0000 20 hurdat_atl main 0 0 O_____________ hurdat_atl AL011959 32.9000 -85.0000 TD 20 -1 20 80
1959148N23274 1959 34 NA NA ARLENE 1959-06-02 09:00:00 TS 33.1383 -83.8868 main 0 0 P_____________ AL011959 33.1383 -83.8868 TD 20 -1 20 73
1959148N23274 1959 34 NA NA ARLENE 1959-06-02 12:00:00 TS 33.5000 -82.7000 20 hurdat_atl main 0 0 O_____________ hurdat_atl AL011959 33.5000 -82.7000 TD 20 -1 22 69
1959148N23274 1959 34 NA NA ARLENE 1959-06-02 15:00:00 TS 33.9361 -81.3909 main 0 0 P_____________ AL011959 33.9361 -81.3909 TD 20 -1 24 68
1959148N23274 1959 34 NA NA ARLENE 1959-06-02 18:00:00 TS 34.4000 -80.0000 20 hurdat_atl main 0 O_____________ hurdat_atl AL011959 34.4000 -80.0000 TD 20 -1 25 68

IBTrACS Databaseについて

本データベースは、米国NOAAが公開する1842年以降の世界の熱帯低気圧のベストトラックデータアーカイブInternational Best Track Archive for Climate Stewardship (IBTrACS)を、ウェブで閲覧しやすい形式に変換したものです。

最終更新日:2021-11-26